createdAt,value
2023-03-22T00:03:17.517Z,94582.00
2023-03-22T00:07:17.626Z,94578.00
2023-03-22T00:11:17.711Z,94576.00
2023-03-22T00:15:17.836Z,94573.00
2023-03-22T00:19:17.928Z,94576.00
2023-03-22T00:23:17.975Z,94576.00
2023-03-22T00:27:18.017Z,94576.00
2023-03-22T00:31:18.039Z,94575.00
2023-03-22T00:35:20.656Z,94571.00
2023-03-22T00:39:18.665Z,94573.00
2023-03-22T00:43:18.232Z,94571.00
2023-03-22T00:47:18.130Z,94571.00
2023-03-22T00:51:18.195Z,94561.00
2023-03-22T00:55:18.102Z,94557.00
2023-03-22T00:59:18.104Z,94557.00
2023-03-22T01:03:18.120Z,94559.00
2023-03-22T01:07:18.066Z,94559.00
2023-03-22T01:11:18.028Z,94551.00
2023-03-22T01:15:17.994Z,94549.00
2023-03-22T01:19:18.082Z,94547.00
2023-03-22T01:23:18.030Z,94545.00
2023-03-22T01:27:17.956Z,94545.00
2023-03-22T01:31:18.043Z,94545.00
2023-03-22T01:35:17.895Z,94547.00
2023-03-22T01:39:17.871Z,94549.00
2023-03-22T01:43:17.869Z,94547.00
2023-03-22T01:47:17.833Z,94549.00
2023-03-22T01:51:17.857Z,94553.00
2023-03-22T01:55:17.860Z,94553.00
2023-03-22T01:59:17.784Z,94553.00
2023-03-22T02:03:17.895Z,94547.00
2023-03-22T02:07:20.667Z,94541.00
2023-03-22T02:11:18.636Z,94545.00
2023-03-22T02:15:17.724Z,94541.00
2023-03-22T02:19:17.752Z,94543.00
2023-03-22T02:23:17.739Z,94547.00
2023-03-22T02:27:17.636Z,94547.00
2023-03-22T02:31:17.639Z,94549.00
2023-03-22T02:35:20.319Z,94557.00
2023-03-22T02:39:17.509Z,94557.00
2023-03-22T02:43:17.482Z,94557.00
2023-03-22T02:47:17.400Z,94559.00
2023-03-22T02:51:17.371Z,94553.00
2023-03-22T02:55:17.344Z,94553.00
2023-03-22T02:59:17.352Z,94547.00
2023-03-22T03:03:17.265Z,94547.00
2023-03-22T03:07:17.254Z,94545.00
2023-03-22T03:11:17.235Z,94543.00
2023-03-22T03:15:17.161Z,94541.00
2023-03-22T03:19:17.125Z,94539.00
2023-03-22T03:23:17.121Z,94533.00
2023-03-22T03:27:17.189Z,94533.00
2023-03-22T03:31:17.713Z,94533.00
2023-03-22T03:35:17.144Z,94537.00
2023-03-22T03:39:16.922Z,94539.00
2023-03-22T03:43:16.898Z,94541.00
2023-03-22T03:47:16.861Z,94539.00
2023-03-22T03:51:16.844Z,94533.00
2023-03-22T03:55:17.212Z,94535.00
2023-03-22T03:59:16.753Z,94528.00
2023-03-22T04:03:16.819Z,94524.00
2023-03-22T04:07:16.698Z,94526.00
2023-03-22T04:11:16.708Z,94524.00
2023-03-22T04:15:16.648Z,94524.00
2023-03-22T04:19:16.614Z,94528.00
2023-03-22T04:23:16.518Z,94526.00
2023-03-22T04:27:16.498Z,94528.00
2023-03-22T04:31:16.541Z,94524.00
2023-03-22T04:35:16.510Z,94526.00
2023-03-22T04:39:16.415Z,94528.00
2023-03-22T04:43:16.385Z,94528.00
2023-03-22T04:47:16.333Z,94524.00
2023-03-22T04:51:16.329Z,94524.00
2023-03-22T04:55:16.292Z,94524.00
2023-03-22T04:59:16.234Z,94530.00
2023-03-22T05:03:16.204Z,94535.00
2023-03-22T05:07:16.237Z,94541.00
2023-03-22T05:11:16.109Z,94541.00
2023-03-22T05:15:16.779Z,94541.00
2023-03-22T05:19:16.036Z,94541.00
2023-03-22T05:23:16.018Z,94541.00
2023-03-22T05:27:16.003Z,94545.00
2023-03-22T05:31:16.280Z,94547.00
2023-03-22T05:35:15.915Z,94551.00
2023-03-22T05:39:16.193Z,94555.00
2023-03-22T05:43:16.469Z,94549.00
2023-03-22T05:47:16.541Z,94551.00
2023-03-22T05:51:16.659Z,94551.00
2023-03-22T05:55:16.711Z,94559.00
2023-03-22T05:59:16.788Z,94559.00
2023-03-22T06:03:17.086Z,94559.00
2023-03-22T06:07:16.782Z,94563.00
2023-03-22T06:11:16.771Z,94563.00
2023-03-22T06:15:16.892Z,94567.00
2023-03-22T06:19:18.306Z,94571.00
2023-03-22T06:23:16.844Z,94569.00
2023-03-22T06:27:17.329Z,94571.00
2023-03-22T06:31:18.484Z,94578.00
2023-03-22T06:35:16.958Z,94573.00
2023-03-22T06:39:17.407Z,94565.00
2023-03-22T06:43:30.810Z,94561.00
2023-03-22T06:47:17.183Z,94559.00
2023-03-22T06:51:18.174Z,94563.00
2023-03-22T06:55:18.757Z,94559.00
2023-03-22T07:03:35.982Z,94561.00
2023-03-22T07:07:35.559Z,94559.00
2023-03-22T07:15:54.352Z,94559.00
2023-03-22T07:19:54.505Z,94555.00
2023-03-22T07:23:54.696Z,94557.00
2023-03-22T07:27:54.665Z,94565.00
2023-03-22T07:31:54.617Z,94557.00
2023-03-22T07:35:55.083Z,94551.00
2023-03-22T07:39:56.833Z,94553.00
2023-03-22T07:44:04.827Z,94551.00
2023-03-22T07:47:55.849Z,94549.00
2023-03-22T07:51:54.606Z,94541.00
2023-03-22T07:55:54.628Z,94541.00
2023-03-22T07:59:55.044Z,94535.00
2023-03-22T08:03:55.124Z,94539.00
2023-03-22T08:07:54.891Z,94535.00
2023-03-22T08:11:54.754Z,94532.00
2023-03-22T08:15:55.087Z,94530.00
2023-03-22T08:19:54.833Z,94532.00
2023-03-22T08:23:54.789Z,94530.00
2023-03-22T08:27:54.952Z,94528.00
2023-03-22T08:31:55.859Z,94530.00
2023-03-22T08:35:54.838Z,94524.00
2023-03-22T08:39:54.766Z,94516.00
2023-03-22T08:43:54.959Z,94514.00
2023-03-22T08:47:55.257Z,94510.00
2023-03-22T08:51:55.207Z,94500.00
2023-03-22T08:55:55.290Z,94488.00
2023-03-22T08:59:55.491Z,94482.00
2023-03-22T09:03:55.326Z,94475.00
2023-03-22T09:08:00.590Z,94467.00
2023-03-22T09:11:56.314Z,94461.00
2023-03-22T09:15:55.366Z,94459.00
2023-03-22T09:20:09.397Z,94455.00
2023-03-22T09:23:56.489Z,94445.00
2023-03-22T09:27:59.954Z,94441.00
2023-03-22T09:31:55.750Z,94435.00
2023-03-22T09:35:57.101Z,94428.00
2023-03-22T09:39:57.048Z,94422.00
2023-03-22T09:48:14.150Z,94416.00
2023-03-22T09:52:13.992Z,94410.00
2023-03-22T09:56:14.595Z,94404.00
2023-03-22T10:00:13.699Z,94398.00
2023-03-22T10:04:13.857Z,94392.00
2023-03-22T10:08:13.615Z,94388.00
2023-03-22T10:12:14.801Z,94382.00
2023-03-22T10:16:13.837Z,94367.00
2023-03-22T10:20:14.228Z,94357.00
2023-03-22T10:24:14.149Z,94351.00
2023-03-22T10:28:14.369Z,94343.00
2023-03-22T10:32:14.966Z,94345.00
2023-03-22T10:36:14.539Z,94338.00
2023-03-22T10:40:14.779Z,94332.00
2023-03-22T10:44:15.620Z,94324.00
2023-03-22T10:48:16.268Z,94324.00
2023-03-22T10:52:15.475Z,94316.00
2023-03-22T10:56:14.822Z,94312.00
2023-03-22T11:00:15.186Z,94302.00
2023-03-22T11:04:14.769Z,94294.00
2023-03-22T11:08:14.638Z,94288.00
2023-03-22T11:12:14.598Z,94285.00
2023-03-22T11:16:14.782Z,94277.00
2023-03-22T11:20:14.608Z,94275.00
2023-03-22T11:24:14.873Z,94263.00
2023-03-22T11:28:14.542Z,94257.00
2023-03-22T11:32:14.451Z,94251.00
2023-03-22T11:36:14.464Z,94243.00
2023-03-22T11:40:14.591Z,94240.00
2023-03-22T11:44:14.726Z,94228.00
2023-03-22T11:48:15.034Z,94222.00
2023-03-22T11:52:14.984Z,94214.00
2023-03-22T11:56:15.217Z,94208.00
2023-03-22T12:00:15.233Z,94206.00
2023-03-22T12:04:15.168Z,94200.00
2023-03-22T12:08:15.102Z,94196.00
2023-03-22T12:12:15.150Z,94186.00
2023-03-22T12:16:15.212Z,94177.00
2023-03-22T12:20:15.026Z,94173.00
2023-03-22T12:24:14.924Z,94165.00
2023-03-22T12:28:14.886Z,94157.00
2023-03-22T12:32:14.862Z,94151.00
2023-03-22T12:36:14.909Z,94143.00
2023-03-22T12:40:14.850Z,94138.00
2023-03-22T12:44:15.058Z,94130.00
2023-03-22T12:48:15.232Z,94124.00
2023-03-22T12:52:15.337Z,94116.00
2023-03-22T12:56:15.594Z,94110.00
2023-03-22T13:00:15.804Z,94102.00
2023-03-22T13:04:16.038Z,94093.00
2023-03-22T13:08:16.197Z,94091.00
2023-03-22T13:12:16.393Z,94085.00
2023-03-22T13:16:16.597Z,94085.00
2023-03-22T13:20:16.780Z,94079.00
2023-03-22T13:24:16.959Z,94071.00
2023-03-22T13:28:17.332Z,94069.00
2023-03-22T13:32:17.403Z,94061.00
2023-03-22T13:36:17.505Z,94057.00
2023-03-22T13:40:17.665Z,94051.00
2023-03-22T13:44:17.893Z,94044.00
2023-03-22T13:48:18.698Z,94034.00
2023-03-22T13:52:18.238Z,94026.00
2023-03-22T13:56:18.440Z,94022.00
2023-03-22T14:00:20.417Z,94018.00
2023-03-22T14:04:18.769Z,94016.00
2023-03-22T14:08:18.969Z,94012.00
2023-03-22T14:12:19.228Z,94006.00
2023-03-22T14:16:19.345Z,94004.00
2023-03-22T14:20:19.535Z,93996.00
2023-03-22T14:49:20.700Z,93977.00
2023-03-22T14:53:20.918Z,93977.00
2023-03-22T14:57:28.374Z,93973.00
2023-03-22T15:01:21.895Z,93971.00
2023-03-22T15:05:21.023Z,93965.00
2023-03-22T15:09:20.817Z,93963.00
2023-03-22T15:13:21.436Z,93959.00
2023-03-22T15:17:21.165Z,93951.00
2023-03-22T15:21:21.458Z,93951.00
2023-03-22T15:25:21.494Z,93949.00
2023-03-22T15:29:21.740Z,93953.00
2023-03-22T15:33:21.834Z,93953.00
2023-03-22T15:37:22.014Z,93953.00
2023-03-22T15:41:22.224Z,93951.00
2023-03-22T15:45:23.081Z,93951.00
2023-03-22T15:49:22.543Z,93953.00
2023-03-22T15:53:22.745Z,93957.00
2023-03-22T15:57:23.024Z,93961.00
2023-03-22T16:01:23.160Z,93963.00
2023-03-22T16:05:23.309Z,93967.00
2023-03-22T16:09:23.490Z,93969.00
2023-03-22T16:13:23.658Z,93975.00
2023-03-22T16:17:23.911Z,93975.00
2023-03-22T16:21:24.021Z,93985.00
2023-03-22T16:25:24.246Z,93991.00
2023-03-22T16:29:24.989Z,93989.00
2023-03-22T16:33:24.686Z,93996.00
2023-03-22T16:37:24.897Z,93996.00
2023-03-22T16:41:25.130Z,93998.00
2023-03-22T16:45:25.065Z,94006.00
2023-03-22T16:49:25.021Z,94010.00
2023-03-22T16:53:25.092Z,94012.00
2023-03-22T16:57:24.995Z,94016.00
2023-03-22T17:01:25.092Z,94024.00
2023-03-22T17:05:25.019Z,94032.00
2023-03-22T17:09:25.055Z,94046.00
2023-03-22T17:13:25.032Z,94046.00
2023-03-22T17:17:26.004Z,94047.00
2023-03-22T17:21:24.900Z,94049.00
2023-03-22T17:25:24.844Z,94057.00
2023-03-22T17:29:24.973Z,94063.00
2023-03-22T17:33:24.896Z,94069.00
2023-03-22T17:37:25.131Z,94073.00
2023-03-22T17:41:24.973Z,94081.00
2023-03-22T17:45:27.442Z,94087.00
2023-03-22T17:49:25.239Z,94094.00
2023-03-22T17:54:04.934Z,94100.00
2023-03-22T18:01:26.263Z,94112.00
2023-03-22T18:05:31.943Z,94126.00
2023-03-22T18:09:26.119Z,94136.00
2023-03-22T18:13:25.146Z,94141.00
2023-03-22T18:17:25.099Z,94149.00
2023-03-22T18:21:25.072Z,94157.00
2023-03-22T18:25:26.976Z,94163.00
2023-03-22T18:29:25.976Z,94173.00
2023-03-22T18:33:24.971Z,94179.00
2023-03-22T18:41:40.886Z,94190.00
2023-03-22T18:45:32.489Z,94194.00
2023-03-22T18:49:25.846Z,94202.00
2023-03-22T18:53:24.787Z,94206.00
2023-03-22T18:57:25.915Z,94212.00
2023-03-22T19:01:25.707Z,94218.00
2023-03-22T19:05:24.665Z,94216.00
2023-03-22T19:09:24.613Z,94212.00
2023-03-22T19:13:24.589Z,94218.00
2023-03-22T19:17:24.703Z,94218.00
2023-03-22T19:21:32.349Z,94224.00
2023-03-22T19:25:25.486Z,94226.00
2023-03-22T19:29:24.504Z,94218.00
2023-03-22T19:33:34.747Z,94222.00
2023-03-22T19:37:25.412Z,94228.00
2023-03-22T19:45:25.356Z,94228.00
2023-03-22T19:49:24.303Z,94228.00
2023-03-22T19:54:12.109Z,94230.00
2023-03-22T19:57:25.214Z,94228.00
2023-03-22T20:01:24.205Z,94228.00
2023-03-22T20:05:24.180Z,94232.00
2023-03-22T20:09:24.109Z,94238.00
2023-03-22T20:13:24.080Z,94236.00
2023-03-22T20:17:26.388Z,94240.00
2023-03-22T20:21:24.229Z,94247.00
2023-03-22T20:25:24.582Z,94251.00
2023-03-22T20:29:24.430Z,94255.00
2023-03-22T20:33:24.456Z,94257.00
2023-03-22T20:37:24.529Z,94263.00
2023-03-22T20:41:24.588Z,94265.00
2023-03-22T20:45:24.682Z,94269.00
2023-03-22T20:49:24.701Z,94271.00
2023-03-22T20:53:24.769Z,94269.00
2023-03-22T20:57:24.844Z,94271.00
2023-03-22T21:01:24.920Z,94279.00
2023-03-22T21:05:24.979Z,94279.00
2023-03-22T21:09:25.576Z,94277.00
2023-03-22T21:13:25.176Z,94287.00
2023-03-22T21:17:25.261Z,94288.00
2023-03-22T21:21:25.345Z,94294.00
2023-03-22T21:25:25.415Z,94300.00
2023-03-22T21:29:25.547Z,94306.00
2023-03-22T21:33:25.620Z,94308.00
2023-03-22T21:37:25.695Z,94310.00
2023-03-22T21:41:25.811Z,94310.00
2023-03-22T21:45:25.882Z,94306.00
2023-03-22T21:49:26.018Z,94314.00
2023-03-22T21:53:26.095Z,94314.00
2023-03-22T21:57:26.272Z,94312.00
2023-03-22T22:01:26.623Z,94310.00
2023-03-22T22:05:26.445Z,94312.00
2023-03-22T22:09:26.634Z,94318.00
2023-03-22T22:13:27.616Z,94324.00
2023-03-22T22:17:26.751Z,94328.00
2023-03-22T22:21:26.823Z,94328.00
2023-03-22T22:25:27.008Z,94332.00
2023-03-22T22:29:27.111Z,94334.00
2023-03-22T22:33:27.251Z,94332.00
2023-03-22T22:37:27.324Z,94334.00
2023-03-22T22:41:27.431Z,94330.00
2023-03-22T22:45:27.574Z,94326.00
2023-03-22T22:49:27.657Z,94326.00
2023-03-22T22:53:27.732Z,94322.00
2023-03-22T22:57:27.854Z,94324.00
2023-03-22T23:01:27.977Z,94324.00
2023-03-22T23:05:28.085Z,94324.00
2023-03-22T23:09:28.231Z,94324.00
2023-03-22T23:13:28.305Z,94316.00
2023-03-22T23:17:28.669Z,94314.00
2023-03-22T23:21:28.549Z,94310.00
2023-03-22T23:25:28.692Z,94314.00
2023-03-22T23:29:28.918Z,94318.00
2023-03-22T23:33:28.909Z,94316.00
2023-03-22T23:37:29.069Z,94314.00
2023-03-22T23:41:29.606Z,94318.00
2023-03-22T23:45:29.270Z,94318.00
2023-03-22T23:49:29.380Z,94318.00
2023-03-22T23:53:29.570Z,94324.00
2023-03-22T23:57:29.724Z,94324.00
